Latest Weather Observations for Arlington Reef

IDQ60801

Issued at 12:32 am EST Tuesday 24 January 2017 (issued every 30 minutes, with the page automatically refreshed every 10 minutes)

About weather observations | Map of weather stations | Latest weather observations for QLD | Other Formats
Station Details ID: 200879 Name: ARLINGTON REEF Lat: -16.72 Lon: 146.11 Height: 0.0 m
Data from the previous 72 hours. | See also: Recent months at Arlington Reef
Date/Time
EST
Temp
°C
App
Temp
°C
Dew
Point
°C
Rel
Hum
%
Delta-T
°C
Wind Press
QNH
hPa
Press
MSL
hPa
Rain since
9am
mm
Dir  Spd
km/h
Gust
km/h
Spd
kts
Gust
kts
24/12:30am - - - - - SE 20 24 11 13 1011.6 1011.6 -
24/12:00am - - - - - SE 24 28 13 15 1011.7 1011.7 -
 
Date/Time
EST
Temp
°C
App
Temp
°C
Dew
Point
°C
Rel
Hum
%
Delta-T
°C
Wind Press
QNH
hPa
Press
MSL
hPa
Rain since
9am
mm
Dir  Spd
km/h
Gust
km/h
Spd
kts
Gust
kts
23/11:30pm - - - - - SE 26 30 14 16 1011.6 1011.6 -
23/11:00pm - - - - - SE 26 32 14 17 1011.7 1011.7 -
23/10:30pm - - - - - SE 22 26 12 14 1011.8 1011.8 -
23/10:00pm - - - - - SE 26 32 14 17 1011.6 1011.6 -
23/09:30pm - - - - - ESE 19 22 10 12 1011.5 1011.5 -
23/09:00pm - - - - - ESE 22 26 12 14 1011.3 1011.3 -
23/08:30pm - - - - - ESE 20 24 11 13 1011.0 1011.0 -
23/08:00pm - - - - - ESE 22 28 12 15 1010.9 1010.9 -
23/07:30pm - - - - - SE 24 28 13 15 1010.6 1010.6 -
23/07:00pm - - - - - SE 22 26 12 14 1010.3 1010.3 -
23/06:30pm - - - - - SE 22 26 12 14 1009.8 1009.8 -
23/06:00pm - - - - - SE 20 26 11 14 1009.6 1009.6 -
23/05:30pm - - - - - SE 22 28 12 15 1009.4 1009.4 -
23/05:00pm - - - - - ESE 22 26 12 14 1009.4 1009.4 -
23/04:30pm - - - - - ESE 20 26 11 14 1009.2 1009.2 -
23/04:00pm - - - - - SE 20 26 11 14 1009.1 1009.1 -
23/03:30pm - - - - - SE 20 24 11 13 1009.4 1009.4 -
23/03:00pm - - - - - SE 19 24 10 13 1009.6 1009.6 -
23/02:30pm - - - - - SE 20 26 11 14 1009.6 1009.6 -
23/02:00pm - - - - - SE 20 24 11 13 1009.6 1009.6 -
23/01:30pm - - - - - SE 19 20 10 11 1009.9 1009.9 -
23/01:00pm - - - - - SE 17 20 9 11 1010.2 1010.2 -
23/12:30pm - - - - - SE 17 22 9 12 1010.6 1010.6 -
23/12:00pm - - - - - ESE 19 22 10 12 1011.0 1011.0 -
23/11:30am - - - - - ESE 22 24 12 13 1011.0 1011.0 -
23/11:00am - - - - - ESE 22 28 12 15 1011.1 1011.1 -
23/10:30am - - - - - ESE 26 30 14 16 1011.0 1011.0 -
23/10:00am - - - - - ESE 26 30 14 16 1011.0 1011.0 -
23/09:30am - - - - - ESE 26 30 14 16 1010.9 1010.9 -
23/09:00am - - - - - ESE 26 30 14 16 1011.0 1011.0 -
23/08:30am - - - - - ESE 26 30 14 16 1010.7 1010.7 -
23/08:00am - - - - - ESE 28 33 15 18 1010.3 1010.3 -
23/07:30am - - - - - ESE 26 32 14 17 1009.9 1009.9 -
23/07:00am - - - - - ESE 28 32 15 17 1009.6 1009.6 -
23/06:30am - - - - - ESE 26 30 14 16 1009.6 1009.6 -
23/06:00am - - - - - ESE 26 30 14 16 1009.4 1009.4 -
23/05:30am - - - - - ESE 26 30 14 16 1009.0 1009.0 -
23/05:00am - - - - - E 26 30 14 16 1008.8 1008.8 -
23/04:30am - - - - - E 22 28 12 15 1008.5 1008.5 -
23/04:00am - - - - - E 22 28 12 15 1008.4 1008.4 -
23/03:30am - - - - - ESE 26 28 14 15 1007.9 1007.9 -
23/03:00am - - - - - ESE 22 26 12 14 1008.0 1008.0 -
23/02:30am - - - - - E 20 24 11 13 1008.3 1008.3 -
23/02:00am - - - - - E 20 24 11 13 1008.8 1008.8 -
23/01:30am - - - - - E 22 26 12 14 1009.2 1009.2 -
23/01:00am - - - - - E 19 22 10 12 1009.4 1009.4 -
23/12:30am - - - - - E 20 24 11 13 1009.8 1009.8 -
23/12:00am - - - - - E 22 24 12 13 1010.0 1010.0 -
 
Date/Time
EST
Temp
°C
App
Temp
°C
Dew
Point
°C
Rel
Hum
%
Delta-T
°C
Wind Press
QNH
hPa
Press
MSL
hPa
Rain since
9am
mm
Dir  Spd
km/h
Gust
km/h
Spd
kts
Gust
kts
22/11:30pm - - - - - E 17 22 9 12 1010.2 1010.2 -
22/11:00pm - - - - - E 20 22 11 12 1010.5 1010.5 -
22/10:30pm - - - - - E 17 20 9 11 1010.6 1010.6 -
22/10:00pm - - - - - E 17 22 9 12 1010.6 1010.6 -
22/09:30pm - - - - - E 17 20 9 11 1010.4 1010.4 -
22/09:00pm - - - - - E 17 22 9 12 1010.3 1010.3 -
22/08:30pm - - - - - E 15 20 8 11 1010.0 1010.0 -
22/08:00pm - - - - - E 15 20 8 11 1009.7 1009.7 -
22/07:30pm - - - - - E 19 22 10 12 1009.4 1009.4 -
22/07:00pm - - - - - E 19 20 10 11 1009.1 1009.1 -
22/06:30pm - - - - - E 20 24 11 13 1008.7 1008.7 -
22/06:00pm - - - - - ESE 22 26 12 14 1008.4 1008.4 -
22/05:30pm - - - - - ESE 20 24 11 13 1007.9 1007.9 -
22/05:00pm - - - - - ESE 20 24 11 13 1007.5 1007.5 -
22/04:30pm - - - - - ESE 20 26 11 14 1007.4 1007.4 -
22/04:00pm - - - - - E 19 22 10 12 1007.5 1007.5 -
22/03:30pm - - - - - ESE 19 22 10 12 1007.7 1007.7 -
22/03:00pm - - - - - E 19 22 10 12 1008.0 1008.0 -
22/02:30pm - - - - - E 15 17 8 9 1008.2 1008.2 -
22/02:00pm - - - - - ESE 13 17 7 9 1008.5 1008.5 -
22/01:30pm - - - - - ESE 13 17 7 9 1008.8 1008.8 -
22/01:00pm - - - - - E 11 15 6 8 1009.1 1009.1 -
22/12:30pm - - - - - E 13 17 7 9 1009.1 1009.1 -
22/12:00pm - - - - - E 13 15 7 8 1009.3 1009.3 -
22/11:30am - - - - - E 11 15 6 8 1009.5 1009.5 -
22/11:00am - - - - - E 9 13 5 7 1009.8 1009.8 -
22/10:30am - - - - - ENE 9 13 5 7 1009.9 1009.9 -
22/10:00am - - - - - E 11 17 6 9 1009.8 1009.8 -
22/09:30am - - - - - ENE 9 13 5 7 1009.7 1009.7 -
22/09:00am - - - - - ENE 7 11 4 6 1009.7 1009.7 -
22/08:30am - - - - - ENE 6 7 3 4 1009.5 1009.5 -
22/08:00am - - - - - ENE 7 9 4 5 1009.4 1009.4 -
22/07:30am - - - - - E 4 6 2 3 1009.2 1009.2 -
22/07:00am - - - - - NE 2 4 1 2 1009.1 1009.1 -
22/06:30am - - - - - CALM 0 0 0 0 1008.8 1008.8 -
22/06:00am - - - - - CALM 0 2 0 1 1008.3 1008.3 -
22/05:30am - - - - - NE 2 4 1 2 1007.7 1007.7 -
22/05:00am - - - - - NNE 6 7 3 4 1007.4 1007.4 -
22/04:30am - - - - - NNE 4 7 2 4 1007.3 1007.3 -
22/04:00am - - - - - N 6 9 3 5 1007.2 1007.2 -
22/03:30am - - - - - NNE 6 9 3 5 1007.1 1007.1 -
22/03:00am - - - - - NNE 4 6 2 3 1007.3 1007.3 -
22/02:30am - - - - - NE 6 7 3 4 1007.3 1007.3 -
22/02:00am - - - - - NE 6 7 3 4 1007.6 1007.6 -
22/01:30am - - - - - CALM 0 0 0 0 1007.9 1007.9 -
22/01:00am - - - - - NNW 6 9 3 5 1008.3 1008.3 -
22/12:30am - - - - - NNE 7 9 4 5 1008.6 1008.6 -
22/12:00am - - - - - NNE 6 7 3 4 1009.1 1009.1 -
 
Date/Time
EST
Temp
°C
App
Temp
°C
Dew
Point
°C
Rel
Hum
%
Delta-T
°C
Wind Press
QNH
hPa
Press
MSL
hPa
Rain since
9am
mm
Dir  Spd
km/h
Gust
km/h
Spd
kts
Gust
kts
21/11:30pm - - - - - N 4 7 2 4 1009.5 1009.5 -
21/11:00pm - - - - - N 4 7 2 4 1009.8 1009.8 -
21/10:30pm - - - - - N 9 13 5 7 1009.8 1009.8 -
21/10:00pm - - - - - N 11 15 6 8 1009.5 1009.5 -
21/09:30pm - - - - - N 15 19 8 10 1009.1 1009.1 -
21/09:00pm - - - - - N 13 17 7 9 1008.6 1008.6 -
21/08:30pm - - - - - NNW 11 15 6 8 1008.2 1008.2 -
21/08:00pm - - - - - N 11 15 6 8 1007.9 1007.9 -
21/07:30pm - - - - - N 7 11 4 6 1007.7 1007.7 -
21/07:00pm - - - - - NNE 11 15 6 8 1007.1 1007.1 -
21/06:30pm - - - - - NNE 13 17 7 9 1006.6 1006.6 -
21/06:00pm - - - - - NNE 13 17 7 9 1006.5 1006.5 -
21/05:30pm - - - - - NNE 11 15 6 8 1006.1 1006.1 -
21/05:00pm - - - - - NNE 11 17 6 9 1005.7 1005.7 -
21/04:30pm - - - - - NNE 11 15 6 8 1005.5 1005.5 -
21/04:00pm - - - - - NNE 9 11 5 6 1005.7 1005.7 -
21/03:30pm - - - - - NNE 9 13 5 7 1005.9 1005.9 -
21/03:00pm - - - - - NNE 9 13 5 7 1006.3 1006.3 -
21/02:30pm - - - - - NNE 9 13 5 7 1006.7 1006.7 -
21/02:00pm - - - - - N 11 15 6 8 1007.2 1007.2 -
21/01:30pm - - - - - NNE 13 15 7 8 1007.5 1007.5 -
21/01:00pm - - - - - N 13 17 7 9 1007.7 1007.7 -
21/12:30pm - - - - - N 13 17 7 9 1008.0 1008.0 -
21/12:00pm - - - - - N 13 17 7 9 1008.4 1008.4 -
21/11:30am - - - - - N 13 15 7 8 1008.8 1008.8 -
21/11:00am - - - - - NNW 13 15 7 8 1009.1 1009.1 -
21/10:30am - - - - - NNW 11 15 6 8 1009.4 1009.4 -
21/10:00am - - - - - NNW 11 15 6 8 1009.7 1009.7 -
21/09:30am - - - - - NNW 11 15 6 8 1009.8 1009.8 -
21/09:00am - - - - - NW 9 13 5 7 1009.8 1009.8 -
21/08:30am - - - - - NW 9 11 5 6 1009.7 1009.7 -
21/08:00am - - - - - WNW 9 11 5 6 1009.6 1009.6 -
21/07:30am - - - - - WNW 7 9 4 5 1009.4 1009.4 -
21/07:00am - - - - - WNW 7 7 4 4 1009.3 1009.3 -
21/06:30am - - - - - WNW 7 9 4 5 1009.3 1009.3 -
21/06:00am - - - - - W 2 7 1 4 1009.0 1009.0 -
21/05:30am - - - - - W 6 9 3 5 1008.4 1008.4 -
21/05:00am - - - - - W 9 13 5 7 1008.1 1008.1 -
21/04:30am - - - - - W 7 11 4 6 1007.5 1007.5 -
21/04:00am - - - - - WNW 13 17 7 9 1007.5 1007.5 -
21/03:30am - - - - - NW 7 11 4 6 1007.5 1007.5 -
21/03:00am - - - - - NNW 7 9 4 5 1007.0 1007.0 -
21/02:30am - - - - - NW 7 9 4 5 1007.2 1007.2 -
21/02:00am - - - - - NW 6 7 3 4 1007.2 1007.2 -
21/01:30am - - - - - WSW 6 6 3 3 1007.6 1007.6 -
21/01:00am - - - - - W 9 11 5 6 1008.0 1008.0 -

Other Formats:

Comma delimited format used in spreadsheet applications
http://www.bom.gov.au/fwo/IDQ60801/IDQ60801.94284.axf

JavaScript Object Notation format (JSON) in row-major order
http://www.bom.gov.au/fwo/IDQ60801/IDQ60801.94284.json